Time;durP1;ratioP1;P1;durP2;ratioP2;P2;SDS_P1;SDS_P2;PMS_P1;PMS_P2;Temp;Humidity;BMP_temperature;BMP_pressure;BME280_temperature;BME280_humidity;BME280_pressure;Samples;Min_cycle;Max_cycle;Signal;HPM_P1;HPM_P2
2024/01/01 00:00:36;;;;;;;52.58;42.40;;;7.90;99.90;;;;;;5071782;28;20089;-46
2024/01/01 00:03:02;;;;;;;60.00;47.35;;;7.90;99.90;;;;;;5090644;28;20477;-45
2024/01/01 00:05:27;;;;;;;55.92;43.92;;;7.90;99.90;;;;;;5087206;28;20056;-46
2024/01/01 00:07:53;;;;;;;52.72;41.35;;;8.00;99.90;;;;;;5071417;28;20097;-47
2024/01/01 00:10:19;;;;;;;59.28;45.35;;;8.00;99.90;;;;;;5090054;28;20036;-46
2024/01/01 00:12:45;;;;;;;42.78;32.80;;;8.00;99.90;;;;;;5086834;28;20044;-45
2024/01/01 00:15:11;;;;;;;42.53;30.40;;;8.00;99.90;;;;;;5074333;28;20031;-45
2024/01/01 00:17:37;;;;;;;35.20;26.98;;;8.00;99.90;;;;;;5089419;28;20480;-46
2024/01/01 00:20:04;;;;;;;38.03;24.98;;;8.00;99.90;;;;;;5090032;28;20454;-45
2024/01/01 00:22:29;;;;;;;32.10;22.75;;;8.00;99.90;;;;;;5086303;28;20033;-48
2024/01/01 00:24:55;;;;;;;28.48;19.75;;;8.00;99.90;;;;;;5093125;28;20178;-45
2024/01/01 00:27:20;;;;;;;26.85;19.33;;;8.00;99.90;;;;;;5091370;28;20032;-45
2024/01/01 00:29:46;;;;;;;24.13;16.65;;;8.00;99.90;;;;;;5087332;28;20582;-46
2024/01/01 00:32:12;;;;;;;27.30;16.75;;;8.10;99.90;;;;;;5091988;28;20567;-46
2024/01/01 00:34:37;;;;;;;23.20;15.55;;;8.10;99.90;;;;;;5089957;28;20043;-45
2024/01/01 00:37:03;;;;;;;25.10;14.98;;;8.10;99.90;;;;;;5091303;28;20044;-46
2024/01/01 00:39:29;;;;;;;24.55;16.55;;;8.10;99.90;;;;;;5090947;28;20032;-45
2024/01/01 00:41:54;;;;;;;27.52;16.73;;;8.10;99.90;;;;;;5089723;28;20032;-46
2024/01/01 00:44:20;;;;;;;26.35;17.30;;;8.10;99.90;;;;;;5090943;28;20486;-46
2024/01/01 00:46:46;;;;;;;29.83;18.27;;;8.10;99.90;;;;;;5086963;28;20044;-47
2024/01/01 00:49:11;;;;;;;27.60;19.05;;;8.10;99.90;;;;;;5089708;28;20489;-46
2024/01/01 00:51:37;;;;;;;31.52;20.25;;;8.10;99.90;;;;;;5089213;28;20063;-45
2024/01/01 00:54:03;;;;;;;28.65;20.20;;;8.00;99.90;;;;;;5087747;28;20370;-45
2024/01/01 00:56:28;;;;;;;28.73;21.75;;;8.00;99.90;;;;;;5087264;28;20046;-45
2024/01/01 00:58:54;;;;;;;32.45;21.38;;;8.00;99.90;;;;;;5088403;28;20039;-45
2024/01/01 01:01:20;;;;;;;28.85;20.98;;;8.00;99.90;;;;;;5086637;28;20172;-46
2024/01/01 01:03:45;;;;;;;35.35;21.35;;;8.00;99.90;;;;;;5084225;28;20051;-46
2024/01/01 01:06:11;;;;;;;32.30;20.45;;;8.00;99.90;;;;;;5078936;28;20040;-46
2024/01/01 01:08:36;;;;;;;30.77;20.85;;;8.00;99.90;;;;;;5078156;28;20054;-46
2024/01/01 01:11:02;;;;;;;30.35;20.48;;;8.10;99.90;;;;;;5077975;28;20390;-47
2024/01/01 01:13:28;;;;;;;34.33;22.17;;;8.10;99.90;;;;;;5075712;28;20078;-46
2024/01/01 01:15:53;;;;;;;30.08;21.35;;;8.00;99.90;;;;;;5073053;28;20473;-49
2024/01/01 01:18:19;;;;;;;28.50;20.38;;;8.00;99.90;;;;;;5073040;28;20047;-48
2024/01/01 01:20:44;;;;;;;31.05;20.85;;;8.10;99.90;;;;;;5071509;28;20060;-50
2024/01/01 01:23:10;;;;;;;27.75;18.42;;;8.10;99.90;;;;;;5077651;28;20062;-45
2024/01/01 01:25:36;;;;;;;32.38;20.00;;;8.10;99.90;;;;;;5087503;28;20172;-45
2024/01/01 01:28:05;;;;;;;31.08;19.08;;;8.10;99.90;;;;;;5087301;28;20444;-46
2024/01/01 01:30:30;;;;;;;27.55;18.38;;;8.10;99.90;;;;;;5085407;28;20040;-46
2024/01/01 01:32:56;;;;;;;25.63;18.50;;;8.10;99.90;;;;;;5085420;28;20044;-46
2024/01/01 01:35:21;;;;;;;25.98;18.50;;;8.10;99.90;;;;;;5085839;28;20501;-48
2024/01/01 01:37:48;;;;;;;26.90;16.95;;;8.10;99.90;;;;;;5086960;28;20037;-46
2024/01/01 01:40:13;;;;;;;27.08;17.45;;;8.00;99.90;;;;;;5089320;28;20510;-46
2024/01/01 01:42:39;;;;;;;25.80;16.80;;;8.00;99.90;;;;;;5091666;28;20044;-47
2024/01/01 01:45:05;;;;;;;25.15;16.85;;;7.90;99.90;;;;;;5092113;28;20386;-46
2024/01/01 01:47:32;;;;;;;27.45;15.32;;;7.90;99.90;;;;;;5091991;28;20048;-45
2024/01/01 01:49:57;;;;;;;23.52;14.90;;;7.80;99.90;;;;;;5091634;28;20058;-45
2024/01/01 01:52:23;;;;;;;23.45;15.50;;;7.80;99.90;;;;;;5089141;28;20122;-45
2024/01/01 01:54:51;;;;;;;27.00;15.43;;;7.80;99.90;;;;;;5091318;28;20477;-44
2024/01/01 01:57:17;;;;;;;23.15;16.58;;;7.80;99.90;;;;;;5088450;28;20497;-46
2024/01/01 01:59:43;;;;;;;26.38;16.65;;;7.90;99.90;;;;;;5086852;28;20071;-45
2024/01/01 02:02:10;;;;;;;23.95;15.65;;;7.90;99.90;;;;;;5084761;28;20051;-44
2024/01/01 02:04:35;;;;;;;23.50;15.35;;;7.90;99.90;;;;;;5084827;28;20590;-46
2024/01/01 02:07:01;;;;;;;23.95;15.77;;;7.90;99.90;;;;;;5083857;28;20131;-46
2024/01/01 02:09:27;;;;;;;25.33;15.23;;;7.90;99.90;;;;;;5085813;28;20064;-45
2024/01/01 02:11:52;;;;;;;23.27;15.05;;;7.90;99.90;;;;;;5086725;28;20127;-45
2024/01/01 02:14:18;;;;;;;17.88;11.95;;;7.90;99.90;;;;;;5084197;28;20033;-45
2024/01/01 02:16:44;;;;;;;18.10;12.70;;;7.90;99.90;;;;;;5087040;28;20036;-46
2024/01/01 02:19:17;;;;;;;15.27;11.07;;;7.90;99.90;;;;;;5084187;28;20511;-45
2024/01/01 02:21:43;;;;;;;17.55;10.57;;;7.90;99.90;;;;;;5087173;28;21055;-46
2024/01/01 02:24:08;;;;;;;13.77;8.82;;;7.90;99.90;;;;;;5087309;28;20146;-45
2024/01/01 02:26:34;;;;;;;14.98;8.88;;;7.90;99.90;;;;;;5068266;28;20044;-45
2024/01/01 02:29:00;;;;;;;15.80;9.43;;;8.00;99.90;;;;;;5087309;28;20039;-45
2024/01/01 02:31:26;;;;;;;14.82;9.70;;;7.90;99.90;;;;;;5081652;28;20037;-47
2024/01/01 02:33:51;;;;;;;15.23;10.20;;;7.90;99.90;;;;;;5083440;28;20521;-46
2024/01/01 02:36:17;;;;;;;17.98;11.15;;;7.90;99.90;;;;;;5088267;28;20448;-47
2024/01/01 02:38:43;;;;;;;12.65;6.97;;;7.90;99.90;;;;;;5085517;28;20051;-46
2024/01/01 02:41:09;;;;;;;8.80;5.35;;;7.90;99.90;;;;;;5084594;28;20095;-47
2024/01/01 02:43:35;;;;;;;7.25;3.85;;;7.90;99.90;;;;;;5085301;28;20127;-46
2024/01/01 02:46:00;;;;;;;9.32;3.60;;;7.90;99.90;;;;;;5065558;28;20052;-45
2024/01/01 02:48:26;;;;;;;11.02;4.07;;;7.90;99.90;;;;;;5084295;28;20048;-46
2024/01/01 02:50:52;;;;;;;10.25;4.15;;;7.90;99.90;;;;;;5085244;28;20527;-46
2024/01/01 02:53:18;;;;;;;7.93;4.68;;;7.90;99.90;;;;;;5087032;28;20043;-48
2024/01/01 02:55:44;;;;;;;9.50;3.88;;;7.90;99.90;;;;;;5085461;28;20032;-46
2024/01/01 02:58:10;;;;;;;9.85;3.83;;;7.90;99.90;;;;;;5082831;28;20118;-45
2024/01/01 03:00:36;;;;;;;7.60;3.47;;;7.80;99.90;;;;;;5083167;28;20040;-47
2024/01/01 03:03:03;;;;;;;10.73;3.83;;;7.80;99.90;;;;;;5084887;28;20458;-46
2024/01/01 03:05:28;;;;;;;7.00;3.20;;;7.80;99.90;;;;;;5085048;28;20133;-46
2024/01/01 03:07:54;;;;;;;6.38;3.25;;;7.80;99.90;;;;;;5088611;28;20032;-45
2024/01/01 03:10:20;;;;;;;7.25;3.20;;;7.70;99.90;;;;;;5085813;28;20037;-45
2024/01/01 03:12:46;;;;;;;7.53;2.83;;;7.70;99.90;;;;;;5088298;28;20059;-45
2024/01/01 03:15:12;;;;;;;5.90;2.42;;;7.70;99.90;;;;;;5067722;28;20082;-44
2024/01/01 03:17:37;;;;;;;6.20;2.10;;;7.70;99.90;;;;;;5085078;28;20056;-46
2024/01/01 03:20:06;;;;;;;5.55;2.40;;;7.60;99.90;;;;;;5083420;28;20428;-46
2024/01/01 03:22:32;;;;;;;4.68;2.20;;;7.60;99.90;;;;;;5083773;28;20489;-46
2024/01/01 03:24:58;;;;;;;5.35;2.33;;;7.60;99.90;;;;;;5084190;28;20047;-45
2024/01/01 03:27:23;;;;;;;5.47;2.67;;;7.60;99.90;;;;;;5085134;28;20075;-45
2024/01/01 03:29:49;;;;;;;5.03;2.50;;;7.50;99.90;;;;;;5084492;28;20048;-45
2024/01/01 03:32:14;;;;;;;5.55;2.50;;;7.50;99.90;;;;;;5084683;28;20063;-45
2024/01/01 03:34:41;;;;;;;6.00;2.80;;;7.50;99.90;;;;;;5083600;28;20686;-45
2024/01/01 03:37:07;;;;;;;7.78;2.80;;;7.50;99.90;;;;;;5092671;28;20424;-46
2024/01/01 03:39:33;;;;;;;9.38;3.05;;;7.40;99.90;;;;;;5085642;28;20047;-47
2024/01/01 03:41:58;;;;;;;6.22;2.72;;;7.40;99.90;;;;;;5084402;28;20045;-46
2024/01/01 03:44:24;;;;;;;7.30;2.72;;;7.40;99.90;;;;;;5082196;28;20124;-47
2024/01/01 03:46:49;;;;;;;5.55;2.58;;;7.40;99.90;;;;;;5083103;28;20040;-47
2024/01/01 03:49:15;;;;;;;8.27;2.90;;;7.30;99.90;;;;;;5085433;28;20052;-44
2024/01/01 03:51:41;;;;;;;8.40;3.13;;;7.30;99.90;;;;;;5086413;28;20036;-45
2024/01/01 03:54:07;;;;;;;9.68;3.20;;;7.30;99.90;;;;;;5082668;28;20032;-46
2024/01/01 03:56:33;;;;;;;7.40;2.83;;;7.30;99.90;;;;;;5085622;28;20093;-46
2024/01/01 03:58:58;;;;;;;6.75;2.95;;;7.30;99.90;;;;;;5084250;28;20038;-45
2024/01/01 04:01:26;;;;;;;7.10;2.75;;;7.30;99.90;;;;;;5069272;28;20101;-47
2024/01/01 04:03:52;;;;;;;5.65;2.55;;;7.30;99.90;;;;;;5081200;28;20189;-45
2024/01/01 04:06:18;;;;;;;6.45;2.70;;;7.30;99.90;;;;;;5087168;28;20048;-45
2024/01/01 04:08:44;;;;;;;7.10;2.65;;;7.30;99.90;;;;;;5068520;28;20051;-46
2024/01/01 04:11:09;;;;;;;4.35;2.15;;;7.30;99.90;;;;;;5085061;28;20032;-45
2024/01/01 04:13:35;;;;;;;4.82;2.40;;;7.30;99.90;;;;;;5084113;28;20048;-45
2024/01/01 04:16:02;;;;;;;9.13;2.70;;;7.30;99.90;;;;;;5083784;28;20070;-46
2024/01/01 04:18:27;;;;;;;8.93;3.00;;;7.30;99.90;;;;;;5082131;28;20055;-46
2024/01/01 04:20:53;;;;;;;7.53;2.35;;;7.20;99.90;;;;;;5080281;28;20036;-46
2024/01/01 04:23:19;;;;;;;5.20;2.38;;;7.20;99.90;;;;;;5083524;28;20036;-47
2024/01/01 04:25:44;;;;;;;7.38;2.45;;;7.20;99.90;;;;;;5084332;28;20499;-48
2024/01/01 04:28:10;;;;;;;7.13;2.67;;;7.20;99.90;;;;;;5082918;28;20032;-46
2024/01/01 04:30:35;;;;;;;5.90;2.58;;;7.20;99.90;;;;;;5085333;28;20087;-47
2024/01/01 04:33:01;;;;;;;8.18;2.72;;;7.20;99.90;;;;;;5086233;28;20028;-46
2024/01/01 04:35:26;;;;;;;7.55;2.90;;;7.20;99.90;;;;;;5083494;28;20039;-46
2024/01/01 04:37:52;;;;;;;6.72;2.38;;;7.20;99.90;;;;;;5064628;28;20508;-45
2024/01/01 04:40:19;;;;;;;7.30;2.35;;;7.20;99.90;;;;;;5085716;28;20060;-49
2024/01/01 04:42:48;;;;;;;9.30;3.10;;;7.20;99.90;;;;;;5084465;28;20062;-45
2024/01/01 04:45:14;;;;;;;7.05;2.35;;;7.10;99.90;;;;;;5083841;28;20101;-46
2024/01/01 04:47:40;;;;;;;10.30;2.72;;;7.20;99.90;;;;;;5061185;28;20080;-46
2024/01/01 04:50:06;;;;;;;8.75;2.30;;;7.20;99.90;;;;;;5067857;28;20036;-46
2024/01/01 04:52:31;;;;;;;8.60;2.42;;;7.20;99.90;;;;;;5081283;28;20477;-45
2024/01/01 04:54:57;;;;;;;11.95;2.50;;;7.20;99.90;;;;;;5088245;28;20166;-46
2024/01/01 04:57:22;;;;;;;8.88;2.38;;;7.20;99.90;;;;;;5086670;28;20115;-45
2024/01/01 04:59:48;;;;;;;8.88;2.95;;;7.20;99.90;;;;;;5066383;28;20184;-46
2024/01/01 05:02:15;;;;;;;11.77;2.30;;;7.20;99.90;;;;;;5087166;28;20035;-45
2024/01/01 05:04:41;;;;;;;7.82;2.50;;;7.30;99.90;;;;;;5082523;28;20043;-46
2024/01/01 05:07:06;;;;;;;9.85;2.38;;;7.30;99.90;;;;;;5083585;28;20397;-45
2024/01/01 05:09:32;;;;;;;11.60;2.58;;;7.30;99.90;;;;;;5083778;28;20048;-45
2024/01/01 05:11:58;;;;;;;11.43;2.85;;;7.30;99.90;;;;;;5086442;28;20217;-47
2024/01/01 05:14:23;;;;;;;9.48;2.63;;;7.30;99.90;;;;;;5081419;28;20058;-47
2024/01/01 05:16:50;;;;;;;9.65;2.60;;;7.20;99.90;;;;;;5084483;28;20043;-45
2024/01/01 05:19:16;;;;;;;10.77;2.60;;;7.20;99.90;;;;;;5085108;28;20044;-45
2024/01/01 05:21:41;;;;;;;13.43;3.03;;;7.20;99.90;;;;;;5079774;28;20033;-45
2024/01/01 05:24:07;;;;;;;8.43;2.70;;;7.20;99.90;;;;;;5082896;28;20579;-45
2024/01/01 05:26:33;;;;;;;7.03;2.13;;;7.20;99.90;;;;;;5081400;28;20067;-45
2024/01/01 05:28:58;;;;;;;8.93;2.50;;;7.20;99.90;;;;;;5079093;28;20128;-46
2024/01/01 05:31:24;;;;;;;11.52;2.92;;;7.10;99.90;;;;;;5086240;28;20032;-45
2024/01/01 05:33:50;;;;;;;10.57;2.80;;;7.20;99.90;;;;;;5083037;28;20154;-46
2024/01/01 05:36:15;;;;;;;11.57;2.53;;;7.20;99.90;;;;;;5085133;28;20040;-46
2024/01/01 05:38:41;;;;;;;12.60;3.05;;;7.10;99.90;;;;;;5081665;28;20040;-45
2024/01/01 05:41:10;;;;;;;10.30;3.17;;;7.10;99.90;;;;;;5079054;28;20062;-45
2024/01/01 05:43:35;;;;;;;11.07;2.92;;;7.10;99.90;;;;;;5084944;28;20130;-47
2024/01/01 05:46:01;;;;;;;10.82;2.88;;;7.10;99.90;;;;;;5087046;28;20080;-46
2024/01/01 05:48:26;;;;;;;12.98;3.00;;;7.10;99.90;;;;;;5069814;28;20044;-45
2024/01/01 05:50:52;;;;;;;14.88;3.15;;;7.10;99.90;;;;;;5082537;28;20047;-45
2024/01/01 05:53:18;;;;;;;12.68;2.78;;;7.10;99.90;;;;;;5083775;28;20436;-46
2024/01/01 05:55:43;;;;;;;15.05;2.92;;;7.10;99.90;;;;;;5081259;28;20283;-46
2024/01/01 05:58:09;;;;;;;16.60;3.10;;;7.10;99.90;;;;;;5085157;28;20044;-47
2024/01/01 06:00:37;;;;;;;17.00;3.08;;;7.10;99.90;;;;;;5081078;28;20084;-48
2024/01/01 06:03:05;;;;;;;12.48;2.95;;;7.10;99.90;;;;;;5080907;28;20044;-45
2024/01/01 06:05:35;;;;;;;18.75;3.35;;;7.10;99.90;;;;;;5080994;28;20089;-45
2024/01/01 06:08:05;;;;;;;12.20;3.17;;;7.10;99.90;;;;;;5079812;28;20491;-46
2024/01/01 06:10:31;;;;;;;11.77;2.95;;;7.10;99.90;;;;;;5080848;28;20036;-49
2024/01/01 06:12:57;;;;;;;13.02;3.30;;;7.00;99.90;;;;;;5082225;28;20662;-46
2024/01/01 06:15:24;;;;;;;11.52;3.05;;;7.00;99.90;;;;;;5082359;28;20385;-46
2024/01/01 06:17:50;;;;;;;14.35;2.78;;;7.10;99.90;;;;;;5087980;28;20129;-46
2024/01/01 06:20:16;;;;;;;9.05;2.53;;;7.00;99.90;;;;;;5081514;28;20048;-47
2024/01/01 06:22:43;;;;;;;9.07;3.13;;;7.00;99.90;;;;;;5083088;28;20055;-45
2024/01/01 06:25:10;;;;;;;12.95;3.13;;;7.00;99.90;;;;;;5066108;28;20439;-46
2024/01/01 06:27:37;;;;;;;11.02;2.78;;;7.00;99.90;;;;;;5086999;28;20047;-49
2024/01/01 06:30:04;;;;;;;9.35;2.95;;;7.10;99.90;;;;;;5088066;28;20420;-45
2024/01/01 06:32:29;;;;;;;17.70;3.28;;;7.00;99.90;;;;;;5088199;28;20051;-46
2024/01/01 06:34:55;;;;;;;9.15;2.63;;;7.00;99.90;;;;;;5086359;28;20033;-45
2024/01/01 06:37:20;;;;;;;11.27;3.00;;;7.00;99.90;;;;;;5088735;28;20036;-46
2024/01/01 06:39:46;;;;;;;12.80;3.03;;;7.00;99.90;;;;;;5084700;28;20040;-46
2024/01/01 06:42:12;;;;;;;13.38;2.85;;;7.00;99.90;;;;;;5081162;28;20441;-47
2024/01/01 06:44:37;;;;;;;10.80;2.53;;;7.00;99.90;;;;;;5086350;28;20097;-45
2024/01/01 06:47:04;;;;;;;9.65;2.92;;;7.00;99.90;;;;;;5086342;28;20036;-46
2024/01/01 06:49:30;;;;;;;12.30;3.15;;;7.00;99.90;;;;;;5087806;28;20074;-47
2024/01/01 06:51:55;;;;;;;13.75;2.97;;;7.00;99.90;;;;;;5083128;28;20093;-45
2024/01/01 06:54:21;;;;;;;10.05;2.92;;;7.00;99.90;;;;;;5081343;28;20510;-44
2024/01/01 06:56:46;;;;;;;11.73;2.78;;;7.00;99.90;;;;;;5088327;28;20072;-47
2024/01/01 06:59:16;;;;;;;11.98;2.83;;;7.00;99.90;;;;;;5085658;28;20059;-45
2024/01/01 07:01:43;;;;;;;11.85;2.95;;;7.00;99.90;;;;;;5086308;28;20776;-46
2024/01/01 07:04:09;;;;;;;11.85;2.63;;;7.00;99.90;;;;;;5087827;28;20048;-45
2024/01/01 07:06:36;;;;;;;11.38;2.80;;;7.00;99.90;;;;;;5084437;28;20055;-45
2024/01/01 07:09:02;;;;;;;8.95;2.53;;;7.00;99.90;;;;;;5083338;28;20377;-46
2024/01/01 07:11:28;;;;;;;10.80;2.70;;;7.00;99.90;;;;;;5086827;28;20089;-46
2024/01/01 07:13:54;;;;;;;11.50;3.30;;;6.90;99.90;;;;;;5084613;28;20040;-44
2024/01/01 07:16:19;;;;;;;11.38;2.70;;;6.90;99.90;;;;;;5090474;28;20058;-45
2024/01/01 07:18:46;;;;;;;10.13;2.40;;;6.90;99.90;;;;;;5086456;28;20048;-45
2024/01/01 07:21:12;;;;;;;11.38;2.72;;;6.90;99.90;;;;;;5084206;28;20489;-44
2024/01/01 07:23:37;;;;;;;9.40;2.78;;;6.90;99.90;;;;;;5067300;28;20038;-46
2024/01/01 07:26:04;;;;;;;13.00;2.80;;;6.90;99.90;;;;;;5087407;28;20115;-47
2024/01/01 07:28:29;;;;;;;8.57;2.47;;;6.90;99.90;;;;;;5088289;28;20481;-46
2024/01/01 07:30:57;;;;;;;11.27;2.60;;;6.90;99.90;;;;;;5083598;28;20047;-46
2024/01/01 07:33:22;;;;;;;7.78;2.78;;;6.90;99.90;;;;;;5083166;28;20126;-46
2024/01/01 07:35:48;;;;;;;8.90;2.97;;;6.90;99.90;;;;;;5087712;28;20130;-45
2024/01/01 07:38:14;;;;;;;9.70;3.17;;;6.80;99.90;;;;;;5064836;28;20474;-45
2024/01/01 07:40:39;;;;;;;14.20;3.33;;;6.80;99.90;;;;;;5083237;28;20107;-45
2024/01/01 07:43:05;;;;;;;11.88;3.15;;;6.80;99.90;;;;;;5065979;28;20037;-45
2024/01/01 07:45:30;;;;;;;15.77;3.25;;;6.80;99.90;;;;;;5089011;28;20051;-45
2024/01/01 07:47:56;;;;;;;12.93;3.38;;;6.80;99.90;;;;;;5087378;28;20132;-46
2024/01/01 07:50:21;;;;;;;10.50;3.10;;;6.80;99.90;;;;;;5085083;28;20052;-48
2024/01/01 07:52:47;;;;;;;12.13;3.10;;;6.90;99.90;;;;;;5088065;28;20101;-46
2024/01/01 07:55:13;;;;;;;16.92;3.45;;;6.90;99.90;;;;;;5084733;28;20072;-48
2024/01/01 07:57:39;;;;;;;10.85;2.78;;;6.90;99.90;;;;;;5088603;28;20468;-45
2024/01/01 08:00:06;;;;;;;15.32;3.85;;;6.90;99.90;;;;;;5082231;28;20718;-46
2024/01/01 08:02:32;;;;;;;13.18;3.63;;;6.90;99.90;;;;;;5083768;28;20169;-45
2024/01/01 08:04:59;;;;;;;16.85;3.90;;;6.90;99.90;;;;;;5085465;28;20036;-44
2024/01/01 08:07:24;;;;;;;11.77;3.90;;;6.90;99.90;;;;;;5069837;28;20077;-46
2024/01/01 08:09:50;;;;;;;11.77;3.38;;;6.90;99.90;;;;;;5083456;28;20052;-46
2024/01/01 08:12:16;;;;;;;10.38;3.53;;;6.90;99.90;;;;;;5086075;28;20095;-45
2024/01/01 08:14:42;;;;;;;13.43;3.53;;;6.90;99.90;;;;;;5085292;28;20043;-45
2024/01/01 08:17:08;;;;;;;10.55;3.55;;;6.90;99.90;;;;;;5087983;28;20040;-45
2024/01/01 08:19:34;;;;;;;11.27;2.95;;;7.00;99.90;;;;;;5085245;28;20044;-45
2024/01/01 08:22:00;;;;;;;13.95;3.42;;;7.00;99.90;;;;;;5087105;28;20039;-45
2024/01/01 08:24:26;;;;;;;10.70;3.05;;;7.00;99.90;;;;;;5081711;28;20048;-46
2024/01/01 08:26:52;;;;;;;10.40;3.20;;;7.00;99.90;;;;;;5085209;28;20089;-46
2024/01/01 08:29:17;;;;;;;11.93;3.40;;;7.00;99.90;;;;;;5082462;28;20056;-45
2024/01/01 08:31:43;;;;;;;10.45;2.90;;;7.00;99.90;;;;;;5085638;28;20032;-45
2024/01/01 08:34:09;;;;;;;9.75;2.80;;;7.00;99.90;;;;;;5086310;28;20087;-46
2024/01/01 08:36:35;;;;;;;8.60;2.70;;;7.00;99.90;;;;;;5069627;28;20040;-46
2024/01/01 08:39:00;;;;;;;12.95;3.17;;;7.00;99.90;;;;;;5072425;28;20075;-48
2024/01/01 08:41:26;;;;;;;8.73;2.58;;;7.00;99.90;;;;;;5082850;28;20455;-45
2024/01/01 08:43:56;;;;;;;8.88;2.97;;;7.00;99.90;;;;;;5084806;28;20051;-47
2024/01/01 08:46:25;;;;;;;9.43;2.95;;;7.10;99.90;;;;;;5086870;28;20396;-45
2024/01/01 08:48:54;;;;;;;11.80;2.75;;;7.10;99.90;;;;;;5085883;28;20040;-47
2024/01/01 08:51:20;;;;;;;10.00;2.80;;;7.10;99.90;;;;;;5083871;28;20367;-46
2024/01/01 08:53:45;;;;;;;13.25;3.17;;;7.10;99.90;;;;;;5089591;28;20032;-47
2024/01/01 08:56:11;;;;;;;10.85;2.83;;;7.10;99.90;;;;;;5087224;28;20039;-46
2024/01/01 08:58:37;;;;;;;9.68;3.30;;;7.20;99.90;;;;;;5081954;28;20040;-46
2024/01/01 09:01:03;;;;;;;13.20;3.67;;;7.20;99.90;;;;;;5084574;28;20040;-47
2024/01/01 09:03:29;;;;;;;10.15;3.17;;;7.20;99.90;;;;;;5086167;28;20082;-46
2024/01/01 09:05:57;;;;;;;9.57;3.08;;;7.20;99.90;;;;;;5086360;28;20040;-45
2024/01/01 09:08:24;;;;;;;9.30;2.97;;;7.20;99.90;;;;;;5086658;28;20280;-46
2024/01/01 09:10:49;;;;;;;11.35;3.60;;;7.20;99.90;;;;;;5088851;28;20157;-46
2024/01/01 09:13:15;;;;;;;11.98;3.08;;;7.20;99.90;;;;;;5088105;28;20521;-46
2024/01/01 09:15:40;;;;;;;11.23;3.25;;;7.30;99.90;;;;;;5080266;28;20048;-47
2024/01/01 09:18:07;;;;;;;7.90;2.58;;;7.30;99.90;;;;;;5084057;28;20492;-45
2024/01/01 09:20:34;;;;;;;8.85;2.72;;;7.30;99.90;;;;;;5081680;28;20409;-46
2024/01/01 09:23:00;;;;;;;5.47;2.63;;;7.40;99.90;;;;;;5083949;28;20474;-45
2024/01/01 09:25:25;;;;;;;13.05;3.70;;;7.40;99.90;;;;;;5085600;28;20073;-48
2024/01/01 09:27:52;;;;;;;8.98;2.83;;;7.40;99.90;;;;;;5084393;28;20048;-46
2024/01/01 09:30:18;;;;;;;12.38;3.40;;;7.40;99.90;;;;;;5079658;28;20044;-47
2024/01/01 09:32:43;;;;;;;9.60;3.45;;;7.40;99.90;;;;;;5083793;28;20040;-45
2024/01/01 09:35:09;;;;;;;12.55;3.90;;;7.40;99.90;;;;;;5084138;28;20047;-46
2024/01/01 09:37:36;;;;;;;10.85;3.47;;;7.50;99.90;;;;;;5066128;28;20170;-46
2024/01/01 09:40:02;;;;;;;11.95;3.50;;;7.40;99.90;;;;;;5081092;28;20083;-46
2024/01/01 09:42:29;;;;;;;10.00;3.40;;;7.40;99.90;;;;;;5083578;28;20516;-46
2024/01/01 09:44:54;;;;;;;9.20;3.90;;;7.50;99.90;;;;;;5082485;28;20047;-46
2024/01/01 09:47:20;;;;;;;10.05;3.50;;;7.50;99.90;;;;;;5082451;28;20497;-45
2024/01/01 09:49:46;;;;;;;8.73;3.47;;;7.50;99.90;;;;;;5087413;28;20378;-45
2024/01/01 09:52:15;;;;;;;8.48;3.35;;;7.60;99.90;;;;;;5085803;28;20051;-46
2024/01/01 09:54:41;;;;;;;12.43;4.00;;;7.60;99.90;;;;;;5085789;28;20497;-46
2024/01/01 09:57:07;;;;;;;8.85;3.67;;;7.70;99.90;;;;;;5088064;28;20050;-47
2024/01/01 09:59:37;;;;;;;9.18;4.00;;;7.70;99.90;;;;;;5085470;28;20112;-47
2024/01/01 10:02:07;;;;;;;13.73;4.30;;;7.70;99.90;;;;;;5089809;28;20202;-46
2024/01/01 10:04:34;;;;;;;12.90;3.95;;;7.70;99.90;;;;;;5091015;28;20052;-46
2024/01/01 10:07:00;;;;;;;16.95;3.45;;;7.70;99.90;;;;;;5091418;28;20380;-48
2024/01/01 10:09:27;;;;;;;10.80;3.72;;;7.60;99.90;;;;;;5093912;28;20040;-46
2024/01/01 10:12:04;;;;;;;9.20;3.20;;;7.60;99.90;;;;;;5093745;28;20129;-45
2024/01/01 10:14:30;;;;;;;9.80;3.80;;;7.50;99.90;;;;;;5082523;28;20075;-45
2024/01/01 10:17:13;;;;;;;13.93;4.40;;;7.50;99.90;;;;;;5076265;28;20056;-46
2024/01/01 10:20:01;;;;;;;11.02;3.88;;;7.50;99.90;;;;;;5092953;28;20044;-46
2024/01/01 10:22:31;;;;;;;10.07;3.60;;;7.40;99.90;;;;;;5080256;28;20045;-45
2024/01/01 10:25:13;;;;;;;12.05;3.75;;;7.40;99.90;;;;;;5089356;28;20153;-46
2024/01/01 10:27:41;;;;;;;8.38;2.80;;;7.40;99.90;;;;;;5092695;28;20058;-47
2024/01/01 10:30:07;;;;;;;9.68;2.75;;;7.40;99.90;;;;;;5097048;28;20051;-46
2024/01/01 10:32:34;;;;;;;9.23;2.50;;;7.40;99.90;;;;;;5073359;28;20048;-47
2024/01/01 10:35:02;;;;;;;9.88;2.53;;;7.40;99.90;;;;;;5086621;28;20524;-47
2024/01/01 10:37:29;;;;;;;;;;;7.40;99.90;;;;;;5088803;28;20055;-46
2024/01/01 10:39:58;;;;;;;6.63;2.30;;;7.40;99.90;;;;;;5088860;28;20350;-46
2024/01/01 10:42:30;;;;;;;9.20;2.78;;;7.40;99.90;;;;;;5085113;28;20304;-48
2024/01/01 10:44:56;;;;;;;6.45;2.83;;;7.50;99.90;;;;;;5089405;28;20028;-46
2024/01/01 10:47:24;;;;;;;8.02;2.80;;;7.60;99.90;;;;;;5085393;28;20508;-46
2024/01/01 10:49:56;;;;;;;8.02;2.90;;;7.70;99.90;;;;;;5083460;28;20041;-49
2024/01/01 10:52:37;;;;;;;7.68;2.63;;;7.80;99.90;;;;;;5089344;28;20411;-46
2024/01/01 10:55:13;;;;;;;10.68;3.25;;;7.80;99.90;;;;;;5085599;28;20081;-48
2024/01/01 10:58:04;;;;;;;7.43;2.90;;;7.80;99.90;;;;;;5078847;28;20044;-47
2024/01/01 11:00:47;;;;;;;6.50;2.97;;;7.70;99.90;;;;;;5084601;28;20052;-46
2024/01/01 11:03:14;;;;;;;7.63;3.22;;;7.70;99.90;;;;;;5087788;28;20552;-46
2024/01/01 11:05:40;;;;;;;7.25;3.00;;;7.70;99.90;;;;;;5088257;28;20035;-46
2024/01/01 11:08:06;;;;;;;9.65;2.72;;;7.70;99.90;;;;;;5092463;28;20043;-46
2024/01/01 11:10:35;;;;;;;11.00;3.33;;;7.70;99.90;;;;;;5088582;28;20392;-46
2024/01/01 11:13:05;;;;;;;12.60;3.60;;;7.80;99.90;;;;;;5087945;28;20481;-45
2024/01/01 11:15:45;;;;;;;11.05;3.90;;;8.10;99.90;;;;;;5091193;28;20076;-46
2024/01/01 11:18:18;;;;;;;9.38;3.38;;;8.50;99.90;;;;;;5088991;28;20160;-46
2024/01/01 11:20:51;;;;;;;9.27;3.20;;;8.80;99.90;;;;;;5090774;28;20469;-46
2024/01/01 11:23:42;;;;;;;10.38;2.85;;;9.00;99.90;;;;;;5085142;28;20093;-46
2024/01/01 11:26:34;;;;;;;10.82;2.90;;;9.20;99.90;;;;;;5071299;28;20411;-46
2024/01/01 11:29:23;;;;;;;8.13;2.65;;;9.20;99.90;;;;;;5070822;28;20036;-46
2024/01/01 11:31:48;;;;;;;7.90;2.58;;;9.10;99.90;;;;;;5076815;28;20052;-46
2024/01/01 11:34:16;;;;;;;10.05;2.63;;;9.10;99.90;;;;;;5091409;28;20036;-47
2024/01/01 11:36:42;;;;;;;9.55;2.42;;;9.20;99.90;;;;;;5087758;28;20077;-47
2024/01/01 11:39:08;;;;;;;8.60;2.10;;;9.30;99.90;;;;;;5090433;28;20075;-46
2024/01/01 11:41:34;;;;;;;7.25;2.28;;;9.60;99.90;;;;;;5086400;28;20052;-47
2024/01/01 11:44:12;;;;;;;5.97;2.05;;;9.60;99.90;;;;;;5081652;28;20425;-46
2024/01/01 11:46:38;;;;;;;8.52;2.20;;;9.60;99.90;;;;;;5090410;28;20097;-47
2024/01/01 11:49:04;;;;;;;6.03;1.70;;;9.60;99.90;;;;;;5087458;28;20059;-46
2024/01/01 11:51:51;;;;;;;5.50;1.75;;;9.50;99.90;;;;;;5087676;28;20040;-45
2024/01/01 11:54:17;;;;;;;8.53;2.10;;;9.40;99.90;;;;;;5082849;28;20104;-47
2024/01/01 11:56:46;;;;;;;7.07;2.10;;;9.40;99.90;;;;;;5087495;28;20044;-46
2024/01/01 11:59:12;;;;;;;8.02;1.73;;;9.30;99.90;;;;;;5054583;28;20082;-46
2024/01/01 12:01:40;;;;;;;6.93;1.92;;;9.00;99.90;;;;;;5087669;28;20047;-46
2024/01/01 12:04:09;;;;;;;7.10;1.95;;;9.10;99.90;;;;;;5080892;28;20342;-48
2024/01/01 12:06:36;;;;;;;5.25;1.50;;;8.80;99.90;;;;;;5084869;28;20136;-46
2024/01/01 12:09:05;;;;;;;6.43;1.65;;;8.70;99.90;;;;;;5091750;28;20535;-46
2024/01/01 12:11:31;;;;;;;8.63;1.83;;;8.60;99.90;;;;;;5087890;28;20043;-46
2024/01/01 12:13:57;;;;;;;8.73;1.80;;;8.70;99.90;;;;;;5088768;28;20032;-46
2024/01/01 12:16:24;;;;;;;7.90;2.10;;;8.60;99.90;;;;;;5087678;28;20028;-46
2024/01/01 12:18:57;;;;;;;6.78;1.90;;;8.60;99.90;;;;;;5089798;28;20040;-46
2024/01/01 12:21:23;;;;;;;8.77;2.40;;;8.60;99.90;;;;;;5089362;28;20040;-46
2024/01/01 12:23:49;;;;;;;8.32;1.80;;;8.60;99.90;;;;;;5089968;28;20043;-46
2024/01/01 12:26:23;;;;;;;7.47;1.92;;;8.70;99.90;;;;;;5088775;28;20048;-48
2024/01/01 12:29:14;;;;;;;6.70;1.83;;;8.70;99.90;;;;;;5083060;28;20096;-46
2024/01/01 12:31:42;;;;;;;7.22;1.65;;;8.70;99.90;;;;;;5088217;28;20370;-46
2024/01/01 12:34:12;;;;;;;7.13;2.00;;;8.80;99.90;;;;;;5091338;28;20040;-46
2024/01/01 12:36:38;;;;;;;10.00;2.33;;;8.80;99.90;;;;;;5091422;28;20044;-46
2024/01/01 12:39:04;;;;;;;10.15;2.05;;;8.70;99.90;;;;;;5090918;28;20055;-46
2024/01/01 12:41:30;;;;;;;6.38;2.20;;;8.70;99.90;;;;;;5089883;28;20052;-46
2024/01/01 12:44:00;;;;;;;8.65;2.25;;;8.70;99.90;;;;;;5088531;28;20047;-47
2024/01/01 12:46:26;;;;;;;8.55;1.88;;;8.70;99.90;;;;;;5089524;28;20040;-47
2024/01/01 12:48:52;;;;;;;9.63;2.30;;;8.60;99.90;;;;;;5089550;28;20035;-47